sensor_id;sensor_type;location;lat;lon;timestamp;temperature;humidity
9542;DHT22;4809;48.224;8.572;2022-12-18T00:02:24;-9.30;87.70
9542;DHT22;4809;48.224;8.572;2022-12-18T00:04:50;-9.20;87.80
9542;DHT22;4809;48.224;8.572;2022-12-18T00:07:15;-9.10;87.50
9542;DHT22;4809;48.224;8.572;2022-12-18T00:09:41;-9.00;88.00
9542;DHT22;4809;48.224;8.572;2022-12-18T00:12:07;-8.90;88.00
9542;DHT22;4809;48.224;8.572;2022-12-18T00:14:33;-8.70;88.20
9542;DHT22;4809;48.224;8.572;2022-12-18T00:16:58;-8.60;88.80
9542;DHT22;4809;48.224;8.572;2022-12-18T00:19:26;-8.50;87.60
9542;DHT22;4809;48.224;8.572;2022-12-18T00:21:51;-8.40;88.50
9542;DHT22;4809;48.224;8.572;2022-12-18T00:24:17;-8.30;87.70
9542;DHT22;4809;48.224;8.572;2022-12-18T00:26:42;-8.30;87.50
9542;DHT22;4809;48.224;8.572;2022-12-18T00:29:12;-8.20;87.70
9542;DHT22;4809;48.224;8.572;2022-12-18T00:31:41;-8.20;88.30
9542;DHT22;4809;48.224;8.572;2022-12-18T00:34:10;-8.10;89.00
9542;DHT22;4809;48.224;8.572;2022-12-18T00:36:37;-8.00;88.80
9542;DHT22;4809;48.224;8.572;2022-12-18T00:39:04;-7.90;89.30
9542;DHT22;4809;48.224;8.572;2022-12-18T00:41:30;-7.90;89.20
9542;DHT22;4809;48.224;8.572;2022-12-18T00:44:16;-7.80;89.80
9542;DHT22;4809;48.224;8.572;2022-12-18T00:46:42;-7.70;90.00
9542;DHT22;4809;48.224;8.572;2022-12-18T00:49:08;-7.70;89.60
9542;DHT22;4809;48.224;8.572;2022-12-18T00:51:37;-7.70;89.40
9542;DHT22;4809;48.224;8.572;2022-12-18T00:54:03;-7.60;89.70
9542;DHT22;4809;48.224;8.572;2022-12-18T00:56:29;-7.60;89.80
9542;DHT22;4809;48.224;8.572;2022-12-18T00:58:54;-7.50;90.10
9542;DHT22;4809;48.224;8.572;2022-12-18T01:01:20;-7.50;90.60
9542;DHT22;4809;48.224;8.572;2022-12-18T01:03:46;-7.40;90.30
9542;DHT22;4809;48.224;8.572;2022-12-18T01:06:13;-7.30;90.50
9542;DHT22;4809;48.224;8.572;2022-12-18T01:08:39;-7.20;90.70
9542;DHT22;4809;48.224;8.572;2022-12-18T01:11:10;-7.20;90.90
9542;DHT22;4809;48.224;8.572;2022-12-18T01:13:36;-7.10;91.20
9542;DHT22;4809;48.224;8.572;2022-12-18T01:16:01;-7.00;91.00
9542;DHT22;4809;48.224;8.572;2022-12-18T01:18:27;-7.00;91.00
9542;DHT22;4809;48.224;8.572;2022-12-18T01:20:53;-7.00;91.20
9542;DHT22;4809;48.224;8.572;2022-12-18T01:23:18;-6.90;91.30
9542;DHT22;4809;48.224;8.572;2022-12-18T01:25:44;-6.90;91.50
9542;DHT22;4809;48.224;8.572;2022-12-18T01:28:10;-6.80;91.80
9542;DHT22;4809;48.224;8.572;2022-12-18T01:30:35;-6.70;91.90
9542;DHT22;4809;48.224;8.572;2022-12-18T01:33:01;-6.60;92.00
9542;DHT22;4809;48.224;8.572;2022-12-18T01:35:26;-6.70;91.70
9542;DHT22;4809;48.224;8.572;2022-12-18T01:37:55;-6.70;91.90
9542;DHT22;4809;48.224;8.572;2022-12-18T01:40:21;-6.60;92.20
9542;DHT22;4809;48.224;8.572;2022-12-18T01:42:53;-6.60;92.10
9542;DHT22;4809;48.224;8.572;2022-12-18T01:45:23;-6.50;92.10
9542;DHT22;4809;48.224;8.572;2022-12-18T01:48:03;-6.50;92.00
9542;DHT22;4809;48.224;8.572;2022-12-18T01:50:43;-6.40;91.80
9542;DHT22;4809;48.224;8.572;2022-12-18T01:53:15;-6.40;91.50
9542;DHT22;4809;48.224;8.572;2022-12-18T01:55:58;-6.40;91.60
9542;DHT22;4809;48.224;8.572;2022-12-18T01:58:39;-6.40;91.50
9542;DHT22;4809;48.224;8.572;2022-12-18T02:01:06;-6.40;91.70
9542;DHT22;4809;48.224;8.572;2022-12-18T02:03:32;-6.30;91.60
9542;DHT22;4809;48.224;8.572;2022-12-18T02:09:04;-6.30;91.60
9542;DHT22;4809;48.224;8.572;2022-12-18T02:11:44;-6.20;91.70
9542;DHT22;4809;48.224;8.572;2022-12-18T02:22:25;-6.00;91.70
9542;DHT22;4809;48.224;8.572;2022-12-18T02:27:20;-6.00;91.30
9542;DHT22;4809;48.224;8.572;2022-12-18T02:29:48;-6.00;91.30
9542;DHT22;4809;48.224;8.572;2022-12-18T02:32:20;-6.10;91.10
9542;DHT22;4809;48.224;8.572;2022-12-18T02:34:49;-6.10;91.30
9542;DHT22;4809;48.224;8.572;2022-12-18T02:37:18;-6.10;91.40
9542;DHT22;4809;48.224;8.572;2022-12-18T02:39:46;-6.00;91.50
9542;DHT22;4809;48.224;8.572;2022-12-18T02:42:13;-6.00;91.40
9542;DHT22;4809;48.224;8.572;2022-12-18T02:44:44;-5.90;91.40
9542;DHT22;4809;48.224;8.572;2022-12-18T02:47:11;-6.00;91.20
9542;DHT22;4809;48.224;8.572;2022-12-18T02:49:48;-5.90;91.30
9542;DHT22;4809;48.224;8.572;2022-12-18T02:52:38;-5.90;91.30
9542;DHT22;4809;48.224;8.572;2022-12-18T02:57:56;-5.90;91.30
9542;DHT22;4809;48.224;8.572;2022-12-18T03:03:36;-6.00;91.60
9542;DHT22;4809;48.224;8.572;2022-12-18T03:06:12;-5.90;91.70
9542;DHT22;4809;48.224;8.572;2022-12-18T03:08:46;-5.90;91.70
9542;DHT22;4809;48.224;8.572;2022-12-18T03:11:13;-5.90;91.70
9542;DHT22;4809;48.224;8.572;2022-12-18T03:13:43;-5.90;91.50
9542;DHT22;4809;48.224;8.572;2022-12-18T03:16:12;-5.80;91.70
9542;DHT22;4809;48.224;8.572;2022-12-18T03:18:49;-5.90;91.70
9542;DHT22;4809;48.224;8.572;2022-12-18T03:21:21;-5.80;91.70
9542;DHT22;4809;48.224;8.572;2022-12-18T03:23:49;-5.80;92.00
9542;DHT22;4809;48.224;8.572;2022-12-18T03:26:19;-5.70;91.90
9542;DHT22;4809;48.224;8.572;2022-12-18T03:28:51;-5.70;91.90
9542;DHT22;4809;48.224;8.572;2022-12-18T03:31:20;-5.70;91.80
9542;DHT22;4809;48.224;8.572;2022-12-18T03:33:55;-5.60;92.00
9542;DHT22;4809;48.224;8.572;2022-12-18T03:36:22;-5.70;91.70
9542;DHT22;4809;48.224;8.572;2022-12-18T03:38:49;-5.60;91.80
9542;DHT22;4809;48.224;8.572;2022-12-18T03:41:34;-5.60;92.00
9542;DHT22;4809;48.224;8.572;2022-12-18T03:47:17;-5.50;92.10
9542;DHT22;4809;48.224;8.572;2022-12-18T03:49:47;-5.40;92.20
9542;DHT22;4809;48.224;8.572;2022-12-18T03:55:11;-5.40;92.10
9542;DHT22;4809;48.224;8.572;2022-12-18T03:57:38;-5.30;92.20
9542;DHT22;4809;48.224;8.572;2022-12-18T04:00:08;-5.30;92.60
9542;DHT22;4809;48.224;8.572;2022-12-18T04:02:34;-5.30;92.70
9542;DHT22;4809;48.224;8.572;2022-12-18T04:05:05;-5.30;92.60
9542;DHT22;4809;48.224;8.572;2022-12-18T04:07:32;-5.30;92.40
9542;DHT22;4809;48.224;8.572;2022-12-18T04:09:59;-5.20;92.70
9542;DHT22;4809;48.224;8.572;2022-12-18T04:12:27;-5.20;92.80
9542;DHT22;4809;48.224;8.572;2022-12-18T04:14:54;-5.20;92.90
9542;DHT22;4809;48.224;8.572;2022-12-18T04:17:20;-5.20;93.00
9542;DHT22;4809;48.224;8.572;2022-12-18T04:19:45;-5.30;93.20
9542;DHT22;4809;48.224;8.572;2022-12-18T04:22:11;-5.20;93.30
9542;DHT22;4809;48.224;8.572;2022-12-18T04:24:37;-5.20;93.40
9542;DHT22;4809;48.224;8.572;2022-12-18T04:27:03;-5.20;93.30
9542;DHT22;4809;48.224;8.572;2022-12-18T04:29:28;-5.20;93.50
9542;DHT22;4809;48.224;8.572;2022-12-18T04:31:54;-5.10;93.40
9542;DHT22;4809;48.224;8.572;2022-12-18T04:34:20;-5.10;93.10
9542;DHT22;4809;48.224;8.572;2022-12-18T04:36:46;-5.10;92.90
9542;DHT22;4809;48.224;8.572;2022-12-18T04:39:12;-5.10;92.90
9542;DHT22;4809;48.224;8.572;2022-12-18T04:41:38;-5.10;93.10
9542;DHT22;4809;48.224;8.572;2022-12-18T04:44:03;-5.10;93.10
9542;DHT22;4809;48.224;8.572;2022-12-18T04:46:29;-5.10;92.90
9542;DHT22;4809;48.224;8.572;2022-12-18T04:48:55;-5.00;93.00
9542;DHT22;4809;48.224;8.572;2022-12-18T04:51:21;-5.10;92.90
9542;DHT22;4809;48.224;8.572;2022-12-18T04:53:46;-5.10;92.80
9542;DHT22;4809;48.224;8.572;2022-12-18T04:56:14;-5.10;92.80
9542;DHT22;4809;48.224;8.572;2022-12-18T04:58:41;-5.10;92.70
9542;DHT22;4809;48.224;8.572;2022-12-18T05:01:08;-5.00;92.80
9542;DHT22;4809;48.224;8.572;2022-12-18T05:03:35;-5.10;92.70
9542;DHT22;4809;48.224;8.572;2022-12-18T05:06:01;-5.10;92.80
9542;DHT22;4809;48.224;8.572;2022-12-18T05:08:27;-5.10;92.90
9542;DHT22;4809;48.224;8.572;2022-12-18T05:13:29;-5.20;92.90
9542;DHT22;4809;48.224;8.572;2022-12-18T05:15:55;-5.20;93.00
9542;DHT22;4809;48.224;8.572;2022-12-18T05:18:22;-5.20;92.90
9542;DHT22;4809;48.224;8.572;2022-12-18T05:20:49;-5.20;93.10
9542;DHT22;4809;48.224;8.572;2022-12-18T05:23:15;-5.20;92.90
9542;DHT22;4809;48.224;8.572;2022-12-18T05:25:40;-5.10;92.90
9542;DHT22;4809;48.224;8.572;2022-12-18T05:28:06;-5.20;92.90
9542;DHT22;4809;48.224;8.572;2022-12-18T05:30:32;-5.20;92.90
9542;DHT22;4809;48.224;8.572;2022-12-18T05:32:57;-5.30;93.10
9542;DHT22;4809;48.224;8.572;2022-12-18T05:35:24;-5.30;93.30
9542;DHT22;4809;48.224;8.572;2022-12-18T05:37:50;-5.30;93.50
9542;DHT22;4809;48.224;8.572;2022-12-18T05:40:15;-5.30;93.50
9542;DHT22;4809;48.224;8.572;2022-12-18T05:42:41;-5.20;93.60
9542;DHT22;4809;48.224;8.572;2022-12-18T05:45:07;-5.20;93.50
9542;DHT22;4809;48.224;8.572;2022-12-18T05:47:33;-5.20;93.60
9542;DHT22;4809;48.224;8.572;2022-12-18T05:49:58;-5.20;93.40
9542;DHT22;4809;48.224;8.572;2022-12-18T05:52:24;-5.20;93.50
9542;DHT22;4809;48.224;8.572;2022-12-18T05:54:50;-5.20;93.50
9542;DHT22;4809;48.224;8.572;2022-12-18T05:57:15;-5.20;93.50
9542;DHT22;4809;48.224;8.572;2022-12-18T05:59:41;-5.20;93.50
9542;DHT22;4809;48.224;8.572;2022-12-18T06:02:06;-5.20;93.50
9542;DHT22;4809;48.224;8.572;2022-12-18T06:04:32;-5.20;93.60
9542;DHT22;4809;48.224;8.572;2022-12-18T06:06:58;-5.20;93.60
9542;DHT22;4809;48.224;8.572;2022-12-18T06:09:24;-5.20;93.60
9542;DHT22;4809;48.224;8.572;2022-12-18T06:11:51;-5.20;93.70
9542;DHT22;4809;48.224;8.572;2022-12-18T06:14:17;-5.20;93.80
9542;DHT22;4809;48.224;8.572;2022-12-18T06:16:42;-5.10;93.90
9542;DHT22;4809;48.224;8.572;2022-12-18T06:19:14;-5.10;94.20
9542;DHT22;4809;48.224;8.572;2022-12-18T06:21:40;-5.10;94.00
9542;DHT22;4809;48.224;8.572;2022-12-18T06:24:06;-5.10;93.90
9542;DHT22;4809;48.224;8.572;2022-12-18T06:26:32;-5.10;93.80
9542;DHT22;4809;48.224;8.572;2022-12-18T06:28:58;-5.10;93.90
9542;DHT22;4809;48.224;8.572;2022-12-18T06:31:24;-5.10;93.90
9542;DHT22;4809;48.224;8.572;2022-12-18T06:33:50;-5.10;94.00
9542;DHT22;4809;48.224;8.572;2022-12-18T06:36:15;-5.10;94.00
9542;DHT22;4809;48.224;8.572;2022-12-18T06:38:43;-5.10;94.00
9542;DHT22;4809;48.224;8.572;2022-12-18T06:41:09;-5.10;94.30
9542;DHT22;4809;48.224;8.572;2022-12-18T06:43:35;-5.10;94.10
9542;DHT22;4809;48.224;8.572;2022-12-18T06:46:02;-5.00;94.20
9542;DHT22;4809;48.224;8.572;2022-12-18T06:48:28;-5.00;94.10
9542;DHT22;4809;48.224;8.572;2022-12-18T06:50:54;-5.00;94.10
9542;DHT22;4809;48.224;8.572;2022-12-18T06:53:20;-4.90;93.90
9542;DHT22;4809;48.224;8.572;2022-12-18T06:55:46;-4.90;93.90
9542;DHT22;4809;48.224;8.572;2022-12-18T06:58:11;-4.90;93.90
9542;DHT22;4809;48.224;8.572;2022-12-18T07:00:37;-4.90;93.90
9542;DHT22;4809;48.224;8.572;2022-12-18T07:03:02;-4.90;94.00
9542;DHT22;4809;48.224;8.572;2022-12-18T07:05:28;-4.90;93.90
9542;DHT22;4809;48.224;8.572;2022-12-18T07:07:54;-4.80;94.10
9542;DHT22;4809;48.224;8.572;2022-12-18T07:10:19;-4.80;93.90
9542;DHT22;4809;48.224;8.572;2022-12-18T07:12:45;-4.90;94.00
9542;DHT22;4809;48.224;8.572;2022-12-18T07:15:11;-4.80;94.00
9542;DHT22;4809;48.224;8.572;2022-12-18T07:17:36;-4.80;94.00
9542;DHT22;4809;48.224;8.572;2022-12-18T07:20:02;-4.80;94.00
9542;DHT22;4809;48.224;8.572;2022-12-18T07:22:28;-4.80;94.00
9542;DHT22;4809;48.224;8.572;2022-12-18T07:24:54;-4.80;94.00
9542;DHT22;4809;48.224;8.572;2022-12-18T07:27:20;-4.80;94.00
9542;DHT22;4809;48.224;8.572;2022-12-18T07:29:46;-4.80;93.90
9542;DHT22;4809;48.224;8.572;2022-12-18T07:32:12;-4.80;93.90
9542;DHT22;4809;48.224;8.572;2022-12-18T07:34:37;-4.80;93.80
9542;DHT22;4809;48.224;8.572;2022-12-18T07:37:03;-4.80;93.90
9542;DHT22;4809;48.224;8.572;2022-12-18T07:39:28;-4.80;93.80
9542;DHT22;4809;48.224;8.572;2022-12-18T07:41:54;-4.80;93.90
9542;DHT22;4809;48.224;8.572;2022-12-18T07:44:38;-4.80;93.90
9542;DHT22;4809;48.224;8.572;2022-12-18T07:47:04;-4.70;93.90
9542;DHT22;4809;48.224;8.572;2022-12-18T07:49:30;-4.70;93.70
9542;DHT22;4809;48.224;8.572;2022-12-18T07:51:56;-4.70;93.70
9542;DHT22;4809;48.224;8.572;2022-12-18T07:54:23;-4.70;93.60
9542;DHT22;4809;48.224;8.572;2022-12-18T07:56:50;-4.70;93.70
9542;DHT22;4809;48.224;8.572;2022-12-18T07:59:15;-4.70;93.60
9542;DHT22;4809;48.224;8.572;2022-12-18T08:01:41;-4.70;93.70
9542;DHT22;4809;48.224;8.572;2022-12-18T08:04:07;-4.70;93.70
9542;DHT22;4809;48.224;8.572;2022-12-18T08:06:32;-4.70;93.70
9542;DHT22;4809;48.224;8.572;2022-12-18T08:08:58;-4.60;93.70
9542;DHT22;4809;48.224;8.572;2022-12-18T08:11:25;-4.60;93.60
9542;DHT22;4809;48.224;8.572;2022-12-18T08:13:51;-4.50;93.50
9542;DHT22;4809;48.224;8.572;2022-12-18T08:16:17;-4.50;93.30
9542;DHT22;4809;48.224;8.572;2022-12-18T08:18:43;-4.50;93.30
9542;DHT22;4809;48.224;8.572;2022-12-18T08:21:20;-4.50;93.30
9542;DHT22;4809;48.224;8.572;2022-12-18T08:23:48;-4.40;93.30
9542;DHT22;4809;48.224;8.572;2022-12-18T08:26:14;-4.40;93.00
9542;DHT22;4809;48.224;8.572;2022-12-18T08:28:40;-4.30;93.00
9542;DHT22;4809;48.224;8.572;2022-12-18T08:31:07;-4.20;92.70
9542;DHT22;4809;48.224;8.572;2022-12-18T08:33:34;-4.20;92.70
9542;DHT22;4809;48.224;8.572;2022-12-18T08:36:00;-4.20;92.70
9542;DHT22;4809;48.224;8.572;2022-12-18T08:38:26;-4.20;92.60
9542;DHT22;4809;48.224;8.572;2022-12-18T08:40:59;-4.10;92.50
9542;DHT22;4809;48.224;8.572;2022-12-18T08:43:26;-4.10;92.30
9542;DHT22;4809;48.224;8.572;2022-12-18T08:46:10;-4.00;92.40
9542;DHT22;4809;48.224;8.572;2022-12-18T08:48:36;-4.10;92.20
9542;DHT22;4809;48.224;8.572;2022-12-18T08:51:01;-4.00;92.50
9542;DHT22;4809;48.224;8.572;2022-12-18T08:53:27;-4.00;92.20
9542;DHT22;4809;48.224;8.572;2022-12-18T08:55:53;-4.00;92.10
9542;DHT22;4809;48.224;8.572;2022-12-18T08:58:19;-3.90;92.00
9542;DHT22;4809;48.224;8.572;2022-12-18T09:00:45;-3.90;92.10
9542;DHT22;4809;48.224;8.572;2022-12-18T09:03:16;-3.80;92.10
9542;DHT22;4809;48.224;8.572;2022-12-18T09:05:42;-3.80;91.80
9542;DHT22;4809;48.224;8.572;2022-12-18T09:08:08;-3.80;91.80
9542;DHT22;4809;48.224;8.572;2022-12-18T09:10:40;-3.70;91.90
9542;DHT22;4809;48.224;8.572;2022-12-18T09:13:06;-3.70;91.70
9542;DHT22;4809;48.224;8.572;2022-12-18T09:15:31;-3.70;91.50
9542;DHT22;4809;48.224;8.572;2022-12-18T09:17:57;-3.60;91.40
9542;DHT22;4809;48.224;8.572;2022-12-18T09:20:23;-3.60;91.30
9542;DHT22;4809;48.224;8.572;2022-12-18T09:22:49;-3.70;91.40
9542;DHT22;4809;48.224;8.572;2022-12-18T09:25:15;-3.70;91.60
9542;DHT22;4809;48.224;8.572;2022-12-18T09:27:41;-3.50;91.50
9542;DHT22;4809;48.224;8.572;2022-12-18T09:30:07;-3.50;91.20
9542;DHT22;4809;48.224;8.572;2022-12-18T09:32:33;-3.50;91.30
9542;DHT22;4809;48.224;8.572;2022-12-18T09:34:58;-3.40;91.10
9542;DHT22;4809;48.224;8.572;2022-12-18T09:37:24;-3.30;90.90
9542;DHT22;4809;48.224;8.572;2022-12-18T09:39:50;-3.20;90.50
9542;DHT22;4809;48.224;8.572;2022-12-18T09:42:20;-3.10;90.30
9542;DHT22;4809;48.224;8.572;2022-12-18T09:44:50;-3.10;90.20
9542;DHT22;4809;48.224;8.572;2022-12-18T09:47:44;-3.00;90.30
9542;DHT22;4809;48.224;8.572;2022-12-18T09:50:31;-3.00;90.10
9542;DHT22;4809;48.224;8.572;2022-12-18T09:53:01;-3.00;90.10
9542;DHT22;4809;48.224;8.572;2022-12-18T09:55:36;-2.90;89.90
9542;DHT22;4809;48.224;8.572;2022-12-18T09:58:13;-2.80;89.50
9542;DHT22;4809;48.224;8.572;2022-12-18T10:00:43;-2.70;89.30
9542;DHT22;4809;48.224;8.572;2022-12-18T10:03:11;-2.50;88.50
9542;DHT22;4809;48.224;8.572;2022-12-18T10:06:06;-2.30;87.70
9542;DHT22;4809;48.224;8.572;2022-12-18T10:19:47;-2.20;86.80
9542;DHT22;4809;48.224;8.572;2022-12-18T10:27:29;-1.80;84.80
9542;DHT22;4809;48.224;8.572;2022-12-18T10:29:56;-1.60;84.60
9542;DHT22;4809;48.224;8.572;2022-12-18T10:32:26;-1.50;83.70
9542;DHT22;4809;48.224;8.572;2022-12-18T10:34:55;-1.50;83.40
9542;DHT22;4809;48.224;8.572;2022-12-18T10:37:25;-1.50;83.50
9542;DHT22;4809;48.224;8.572;2022-12-18T10:40:13;-1.50;83.70
9542;DHT22;4809;48.224;8.572;2022-12-18T10:42:39;-1.50;83.60
9542;DHT22;4809;48.224;8.572;2022-12-18T10:45:10;-1.80;83.90
9542;DHT22;4809;48.224;8.572;2022-12-18T10:47:42;-1.70;84.00
9542;DHT22;4809;48.224;8.572;2022-12-18T10:50:19;-1.70;84.70
9542;DHT22;4809;48.224;8.572;2022-12-18T10:52:56;-1.30;83.50
9542;DHT22;4809;48.224;8.572;2022-12-18T10:55:26;-0.90;81.80
9542;DHT22;4809;48.224;8.572;2022-12-18T10:57:52;-0.70;80.40
9542;DHT22;4809;48.224;8.572;2022-12-18T11:00:24;-0.70;79.90
9542;DHT22;4809;48.224;8.572;2022-12-18T11:02:51;-0.70;79.00
9542;DHT22;4809;48.224;8.572;2022-12-18T11:05:30;-0.70;79.50
9542;DHT22;4809;48.224;8.572;2022-12-18T11:07:57;-0.50;79.00
9542;DHT22;4809;48.224;8.572;2022-12-18T11:10:32;-0.40;78.50
9542;DHT22;4809;48.224;8.572;2022-12-18T11:13:19;-0.60;78.40
9542;DHT22;4809;48.224;8.572;2022-12-18T11:15:46;-0.60;79.10
9542;DHT22;4809;48.224;8.572;2022-12-18T11:18:33;-0.60;79.00
9542;DHT22;4809;48.224;8.572;2022-12-18T11:21:06;-0.20;78.90
9542;DHT22;4809;48.224;8.572;2022-12-18T11:23:34;-0.20;76.90
9542;DHT22;4809;48.224;8.572;2022-12-18T11:26:02;-0.30;78.30
9542;DHT22;4809;48.224;8.572;2022-12-18T11:28:39;-0.20;77.40
9542;DHT22;4809;48.224;8.572;2022-12-18T11:31:27;-0.10;77.60
9542;DHT22;4809;48.224;8.572;2022-12-18T11:34:11;0.40;75.80
9542;DHT22;4809;48.224;8.572;2022-12-18T11:36:42;0.60;74.10
9542;DHT22;4809;48.224;8.572;2022-12-18T11:39:18;0.40;75.00
9542;DHT22;4809;48.224;8.572;2022-12-18T11:47:29;-0.10;75.80
9542;DHT22;4809;48.224;8.572;2022-12-18T11:50:01;0.10;76.10
9542;DHT22;4809;48.224;8.572;2022-12-18T11:54:58;0.20;76.10
9542;DHT22;4809;48.224;8.572;2022-12-18T12:00:21;0.00;76.40
9542;DHT22;4809;48.224;8.572;2022-12-18T12:08:37;0.00;76.70
9542;DHT22;4809;48.224;8.572;2022-12-18T12:16:55;-0.20;78.00
9542;DHT22;4809;48.224;8.572;2022-12-18T12:25:18;0.30;76.40
9542;DHT22;4809;48.224;8.572;2022-12-18T12:38:40;-0.10;78.40
9542;DHT22;4809;48.224;8.572;2022-12-18T12:41:11;-0.20;78.10
9542;DHT22;4809;48.224;8.572;2022-12-18T12:43:58;0.00;77.50
9542;DHT22;4809;48.224;8.572;2022-12-18T12:46:26;0.00;77.50
9542;DHT22;4809;48.224;8.572;2022-12-18T12:49:00;0.20;77.30
9542;DHT22;4809;48.224;8.572;2022-12-18T12:51:39;0.40;76.40
9542;DHT22;4809;48.224;8.572;2022-12-18T12:54:15;0.10;76.00
9542;DHT22;4809;48.224;8.572;2022-12-18T12:56:48;-0.20;77.20
9542;DHT22;4809;48.224;8.572;2022-12-18T13:02:41;0.40;78.10
9542;DHT22;4809;48.224;8.572;2022-12-18T13:08:00;1.50;71.50
9542;DHT22;4809;48.224;8.572;2022-12-18T13:10:33;1.30;72.20
9542;DHT22;4809;48.224;8.572;2022-12-18T13:13:13;1.50;72.40
9542;DHT22;4809;48.224;8.572;2022-12-18T13:15:48;1.90;70.30
9542;DHT22;4809;48.224;8.572;2022-12-18T13:34:21;2.30;69.10
9542;DHT22;4809;48.224;8.572;2022-12-18T13:36:47;3.10;66.40
9542;DHT22;4809;48.224;8.572;2022-12-18T13:44:59;3.20;63.50
9542;DHT22;4809;48.224;8.572;2022-12-18T13:47:36;2.60;64.90
9542;DHT22;4809;48.224;8.572;2022-12-18T13:50:31;2.10;67.40
9542;DHT22;4809;48.224;8.572;2022-12-18T13:52:58;1.70;68.80
9542;DHT22;4809;48.224;8.572;2022-12-18T13:55:24;1.60;69.40
9542;DHT22;4809;48.224;8.572;2022-12-18T13:58:03;1.30;70.70
9542;DHT22;4809;48.224;8.572;2022-12-18T14:00:30;0.90;72.20
9542;DHT22;4809;48.224;8.572;2022-12-18T14:02:57;0.60;73.50
9542;DHT22;4809;48.224;8.572;2022-12-18T14:05:33;0.50;73.80
9542;DHT22;4809;48.224;8.572;2022-12-18T14:08:12;0.30;75.10
9542;DHT22;4809;48.224;8.572;2022-12-18T14:10:44;0.30;75.40
9542;DHT22;4809;48.224;8.572;2022-12-18T14:13:23;0.10;75.70
9542;DHT22;4809;48.224;8.572;2022-12-18T14:15:50;-0.20;76.50
9542;DHT22;4809;48.224;8.572;2022-12-18T14:18:33;-0.40;78.40
9542;DHT22;4809;48.224;8.572;2022-12-18T14:21:01;-0.60;79.30
9542;DHT22;4809;48.224;8.572;2022-12-18T14:26:02;-1.00;81.20
9542;DHT22;4809;48.224;8.572;2022-12-18T14:28:29;-1.20;81.80
9542;DHT22;4809;48.224;8.572;2022-12-18T14:30:55;-1.40;82.60
9542;DHT22;4809;48.224;8.572;2022-12-18T14:33:27;-1.60;83.90
9542;DHT22;4809;48.224;8.572;2022-12-18T14:36:20;-1.80;85.00
9542;DHT22;4809;48.224;8.572;2022-12-18T14:38:57;-1.90;85.80
9542;DHT22;4809;48.224;8.572;2022-12-18T14:41:24;-2.00;87.30
9542;DHT22;4809;48.224;8.572;2022-12-18T14:43:51;-2.10;87.00
9542;DHT22;4809;48.224;8.572;2022-12-18T14:49:02;-2.20;87.70
9542;DHT22;4809;48.224;8.572;2022-12-18T14:51:30;-2.20;87.70
9542;DHT22;4809;48.224;8.572;2022-12-18T14:56:37;-2.30;88.10
9542;DHT22;4809;48.224;8.572;2022-12-18T14:59:23;-2.40;88.80
9542;DHT22;4809;48.224;8.572;2022-12-18T15:02:26;-2.40;89.20
9542;DHT22;4809;48.224;8.572;2022-12-18T15:05:19;-2.50;90.00
9542;DHT22;4809;48.224;8.572;2022-12-18T15:07:56;-2.70;90.30
9542;DHT22;4809;48.224;8.572;2022-12-18T15:10:24;-2.70;90.50
9542;DHT22;4809;48.224;8.572;2022-12-18T15:20:49;-3.10;91.20
9542;DHT22;4809;48.224;8.572;2022-12-18T15:23:22;-3.20;91.40
9542;DHT22;4809;48.224;8.572;2022-12-18T15:25:58;-3.20;91.60
9542;DHT22;4809;48.224;8.572;2022-12-18T15:33:43;-3.20;91.60
9542;DHT22;4809;48.224;8.572;2022-12-18T15:36:14;-3.30;92.00
9542;DHT22;4809;48.224;8.572;2022-12-18T15:38:41;-3.40;92.10
9542;DHT22;4809;48.224;8.572;2022-12-18T15:41:13;-3.40;92.30
9542;DHT22;4809;48.224;8.572;2022-12-18T15:43:39;-3.40;92.50
9542;DHT22;4809;48.224;8.572;2022-12-18T15:46:07;-3.40;92.40
9542;DHT22;4809;48.224;8.572;2022-12-18T15:48:38;-3.40;92.60
9542;DHT22;4809;48.224;8.572;2022-12-18T15:51:08;-3.40;92.60
9542;DHT22;4809;48.224;8.572;2022-12-18T15:53:38;-3.40;93.00
9542;DHT22;4809;48.224;8.572;2022-12-18T15:56:07;-3.40;92.90
9542;DHT22;4809;48.224;8.572;2022-12-18T15:58:52;-3.40;92.80
9542;DHT22;4809;48.224;8.572;2022-12-18T16:01:23;-3.40;93.00
9542;DHT22;4809;48.224;8.572;2022-12-18T16:03:49;-3.40;93.00
9542;DHT22;4809;48.224;8.572;2022-12-18T16:06:15;-3.40;93.20
9542;DHT22;4809;48.224;8.572;2022-12-18T16:08:40;-3.40;93.20
9542;DHT22;4809;48.224;8.572;2022-12-18T16:11:35;-3.40;93.20
9542;DHT22;4809;48.224;8.572;2022-12-18T16:14:20;-3.40;93.40
9542;DHT22;4809;48.224;8.572;2022-12-18T16:16:48;-3.30;93.40
9542;DHT22;4809;48.224;8.572;2022-12-18T16:19:14;-3.30;93.30
9542;DHT22;4809;48.224;8.572;2022-12-18T16:21:40;-3.30;93.30
9542;DHT22;4809;48.224;8.572;2022-12-18T16:24:08;-3.30;93.20
9542;DHT22;4809;48.224;8.572;2022-12-18T16:26:34;-3.30;93.30
9542;DHT22;4809;48.224;8.572;2022-12-18T16:29:00;-3.30;93.30
9542;DHT22;4809;48.224;8.572;2022-12-18T16:31:26;-3.30;93.30
9542;DHT22;4809;48.224;8.572;2022-12-18T16:34:13;-3.30;93.30
9542;DHT22;4809;48.224;8.572;2022-12-18T16:36:39;-3.20;93.30
9542;DHT22;4809;48.224;8.572;2022-12-18T16:39:05;-3.20;93.20
9542;DHT22;4809;48.224;8.572;2022-12-18T16:41:31;-3.20;93.20
9542;DHT22;4809;48.224;8.572;2022-12-18T16:43:57;-3.20;93.10
9542;DHT22;4809;48.224;8.572;2022-12-18T16:46:23;-3.20;93.20
9542;DHT22;4809;48.224;8.572;2022-12-18T16:48:49;-3.20;93.20
9542;DHT22;4809;48.224;8.572;2022-12-18T16:51:14;-3.20;93.30
9542;DHT22;4809;48.224;8.572;2022-12-18T16:53:40;-3.20;93.30
9542;DHT22;4809;48.224;8.572;2022-12-18T16:56:06;-3.10;93.20
9542;DHT22;4809;48.224;8.572;2022-12-18T16:58:31;-3.20;93.10
9542;DHT22;4809;48.224;8.572;2022-12-18T17:00:57;-3.10;93.20
9542;DHT22;4809;48.224;8.572;2022-12-18T17:03:23;-3.20;93.10
9542;DHT22;4809;48.224;8.572;2022-12-18T17:05:48;-3.20;93.20
9542;DHT22;4809;48.224;8.572;2022-12-18T17:08:14;-3.20;93.20
9542;DHT22;4809;48.224;8.572;2022-12-18T17:10:39;-3.10;93.20
9542;DHT22;4809;48.224;8.572;2022-12-18T17:13:05;-3.10;93.10
9542;DHT22;4809;48.224;8.572;2022-12-18T17:15:34;-3.10;93.20
9542;DHT22;4809;48.224;8.572;2022-12-18T17:18:00;-3.10;93.00
9542;DHT22;4809;48.224;8.572;2022-12-18T17:20:25;-3.10;93.10
9542;DHT22;4809;48.224;8.572;2022-12-18T17:22:51;-3.10;93.10
9542;DHT22;4809;48.224;8.572;2022-12-18T17:25:16;-3.10;93.10
9542;DHT22;4809;48.224;8.572;2022-12-18T17:27:42;-3.10;93.10
9542;DHT22;4809;48.224;8.572;2022-12-18T17:30:08;-3.10;93.20
9542;DHT22;4809;48.224;8.572;2022-12-18T17:32:34;-3.10;93.20
9542;DHT22;4809;48.224;8.572;2022-12-18T17:35:00;-3.10;93.30
9542;DHT22;4809;48.224;8.572;2022-12-18T17:37:25;-3.00;93.30
9542;DHT22;4809;48.224;8.572;2022-12-18T17:39:52;-3.00;93.30
9542;DHT22;4809;48.224;8.572;2022-12-18T17:42:17;-3.00;93.10
9542;DHT22;4809;48.224;8.572;2022-12-18T17:44:43;-3.00;93.20
9542;DHT22;4809;48.224;8.572;2022-12-18T17:47:10;-3.00;93.20
9542;DHT22;4809;48.224;8.572;2022-12-18T17:49:37;-3.00;93.20
9542;DHT22;4809;48.224;8.572;2022-12-18T17:52:03;-3.00;93.30
9542;DHT22;4809;48.224;8.572;2022-12-18T17:54:29;-3.00;93.40
9542;DHT22;4809;48.224;8.572;2022-12-18T17:56:55;-3.00;93.40
9542;DHT22;4809;48.224;8.572;2022-12-18T17:59:20;-3.00;93.40
9542;DHT22;4809;48.224;8.572;2022-12-18T18:01:48;-2.90;93.40
9542;DHT22;4809;48.224;8.572;2022-12-18T18:04:13;-2.90;93.40
9542;DHT22;4809;48.224;8.572;2022-12-18T18:06:39;-2.90;93.30
9542;DHT22;4809;48.224;8.572;2022-12-18T18:09:06;-2.90;93.40
9542;DHT22;4809;48.224;8.572;2022-12-18T18:11:32;-2.90;93.30
9542;DHT22;4809;48.224;8.572;2022-12-18T18:14:18;-2.90;93.30
9542;DHT22;4809;48.224;8.572;2022-12-18T18:16:47;-2.90;93.40
9542;DHT22;4809;48.224;8.572;2022-12-18T18:19:15;-2.90;93.40
9542;DHT22;4809;48.224;8.572;2022-12-18T18:21:43;-2.90;93.40
9542;DHT22;4809;48.224;8.572;2022-12-18T18:24:10;-3.00;93.40
9542;DHT22;4809;48.224;8.572;2022-12-18T18:26:37;-3.00;93.30
9542;DHT22;4809;48.224;8.572;2022-12-18T18:29:05;-2.90;93.20